createdAt,value
2017-08-08T00:01:21.027Z,5.53
2017-08-08T00:03:46.983Z,5.93
2017-08-08T00:06:12.968Z,5.47
2017-08-08T00:08:39.033Z,4.57
2017-08-08T00:11:05.037Z,6.10
2017-08-08T00:13:31.015Z,5.77
2017-08-08T00:15:56.973Z,5.27
2017-08-08T00:18:23.693Z,6.07
2017-08-08T00:20:49.653Z,4.97
2017-08-08T00:23:16.417Z,5.63
2017-08-08T00:25:42.351Z,5.23
2017-08-08T00:28:08.314Z,5.13
2017-08-08T00:30:34.261Z,5.50
2017-08-08T00:33:00.210Z,5.70
2017-08-08T00:35:26.162Z,5.10
2017-08-08T00:37:52.133Z,5.47
2017-08-08T00:40:21.571Z,5.60
2017-08-08T00:42:47.533Z,5.37
2017-08-08T00:45:13.485Z,5.37
2017-08-08T00:47:39.430Z,6.00
2017-08-08T00:50:05.386Z,4.87
2017-08-08T00:52:32.120Z,5.37
2017-08-08T00:54:58.823Z,5.50
2017-08-08T00:57:24.821Z,5.17
2017-08-08T00:59:50.769Z,5.47
2017-08-08T01:02:16.769Z,6.10
2017-08-08T01:04:42.743Z,5.73
2017-08-08T01:07:08.708Z,5.83
2017-08-08T01:09:35.802Z,5.00
2017-08-08T01:12:01.758Z,5.60
2017-08-08T01:14:27.734Z,5.50
2017-08-08T01:16:53.702Z,5.50
2017-08-08T01:19:19.658Z,5.50
2017-08-08T01:21:45.607Z,5.10
2017-08-08T01:24:11.564Z,5.50
2017-08-08T01:26:37.518Z,5.73
2017-08-08T01:29:03.485Z,4.80
2017-08-08T01:31:30.182Z,6.30
2017-08-08T01:33:56.174Z,5.60
2017-08-08T01:36:22.161Z,5.50
2017-08-08T01:38:48.201Z,5.87
2017-08-08T01:41:14.217Z,5.80
2017-08-08T01:43:40.167Z,6.80
2017-08-08T01:46:06.878Z,5.37
2017-08-08T01:48:32.843Z,6.40
2017-08-08T01:50:58.801Z,6.83
2017-08-08T01:53:24.733Z,5.60
2017-08-08T01:55:50.685Z,6.13
2017-08-08T01:58:16.650Z,5.87
2017-08-08T02:00:43.350Z,6.23
2017-08-08T02:03:09.304Z,6.53
2017-08-08T02:05:36.055Z,5.60
2017-08-08T02:08:02.020Z,5.10
2017-08-08T02:10:27.983Z,5.83
2017-08-08T02:12:53.941Z,5.33
2017-08-08T02:15:19.886Z,5.50
2017-08-08T02:17:46.570Z,5.93
2017-08-08T02:20:12.509Z,5.23
2017-08-08T02:22:38.474Z,5.50
2017-08-08T02:25:04.405Z,5.77
2017-08-08T02:27:32.083Z,5.57
2017-08-08T02:29:58.009Z,5.63
2017-08-08T02:32:24.680Z,5.87
2017-08-08T02:34:50.615Z,5.70
2017-08-08T02:37:16.587Z,6.20
2017-08-08T02:39:42.566Z,6.17
2017-08-08T02:42:08.513Z,6.70
2017-08-08T02:44:34.438Z,6.40
2017-08-08T02:47:00.370Z,5.40
2017-08-08T02:49:26.275Z,5.70
2017-08-08T02:51:52.209Z,5.80
2017-08-08T02:54:18.151Z,6.47
2017-08-08T02:56:44.089Z,6.27
2017-08-08T02:59:10.043Z,6.67
2017-08-08T03:01:36.726Z,5.77
2017-08-08T03:04:02.662Z,5.90
2017-08-08T03:06:28.613Z,5.13
2017-08-08T03:08:54.538Z,5.47
2017-08-08T03:11:24.485Z,5.70
2017-08-08T03:13:50.414Z,5.10
2017-08-08T03:16:16.344Z,5.73
2017-08-08T03:18:43.020Z,5.40
2017-08-08T03:21:08.976Z,6.00
2017-08-08T03:23:34.893Z,6.80
2017-08-08T03:26:00.835Z,5.70
2017-08-08T03:28:26.774Z,6.03
2017-08-08T03:30:52.710Z,6.10
2017-08-08T03:33:18.673Z,5.67
2017-08-08T03:35:44.614Z,6.40
2017-08-08T03:38:10.594Z,5.03
2017-08-08T03:40:36.530Z,5.67
2017-08-08T03:43:03.210Z,5.43
2017-08-08T03:45:29.174Z,6.43
2017-08-08T03:47:55.105Z,5.93
2017-08-08T03:50:21.082Z,5.93
2017-08-08T03:52:47.013Z,5.40
2017-08-08T03:55:12.954Z,5.30
2017-08-08T03:57:38.896Z,5.63
2017-08-08T04:00:04.845Z,5.27
2017-08-08T04:02:30.801Z,6.27
2017-08-08T04:04:56.733Z,5.23
2017-08-08T04:07:22.679Z,6.50
2017-08-08T04:09:48.608Z,6.73
2017-08-08T04:12:14.557Z,6.37
2017-08-08T04:14:40.499Z,6.00
2017-08-08T04:17:06.442Z,6.20
2017-08-08T04:19:32.389Z,6.43
2017-08-08T04:21:59.066Z,6.63
2017-08-08T04:24:25.013Z,5.63
2017-08-08T04:26:50.918Z,5.10
2017-08-08T04:29:16.856Z,5.43
2017-08-08T04:31:42.785Z,5.57
2017-08-08T04:34:08.722Z,6.20
2017-08-08T04:36:34.653Z,6.57
2017-08-08T04:39:00.578Z,5.53
2017-08-08T04:41:26.509Z,6.00
2017-08-08T04:43:52.487Z,6.13
2017-08-08T04:46:19.192Z,6.40
2017-08-08T04:48:45.154Z,5.93
2017-08-08T04:51:11.106Z,6.17
2017-08-08T04:53:37.138Z,5.50
2017-08-08T04:56:03.072Z,6.57
2017-08-08T04:58:28.991Z,6.23
2017-08-08T05:00:54.942Z,6.63
2017-08-08T05:03:20.853Z,5.53
2017-08-08T05:05:46.816Z,7.07
2017-08-08T05:08:12.760Z,5.40
2017-08-08T05:10:38.754Z,6.13
2017-08-08T05:13:04.705Z,5.00
2017-08-08T05:15:30.649Z,6.00
2017-08-08T05:17:56.595Z,5.77
2017-08-08T05:20:23.328Z,6.00
2017-08-08T05:22:49.284Z,5.30
2017-08-08T05:25:15.232Z,5.00
2017-08-08T05:27:41.181Z,5.87
2017-08-08T05:30:07.117Z,5.70
2017-08-08T05:32:33.073Z,5.70
2017-08-08T05:34:59.777Z,6.27
2017-08-08T05:37:25.734Z,6.10
2017-08-08T05:39:51.682Z,6.37
2017-08-08T05:42:18.392Z,5.50
2017-08-08T05:44:44.354Z,5.70
2017-08-08T05:47:11.041Z,5.80
2017-08-08T05:49:37.030Z,5.93
2017-08-08T05:52:03.000Z,5.80
2017-08-08T05:54:28.950Z,6.03
2017-08-08T05:56:54.897Z,5.33
2017-08-08T05:59:20.847Z,5.70
2017-08-08T06:01:46.786Z,6.43
2017-08-08T06:04:12.742Z,5.90
2017-08-08T06:06:38.721Z,6.43
2017-08-08T06:09:04.723Z,5.27
2017-08-08T06:11:30.672Z,6.20
2017-08-08T06:13:57.436Z,5.80
2017-08-08T06:16:23.386Z,6.03
2017-08-08T06:18:49.350Z,6.43
2017-08-08T06:21:15.361Z,5.37
2017-08-08T06:23:41.317Z,5.53
2017-08-08T06:26:08.037Z,5.93
2017-08-08T06:28:33.986Z,5.90
2017-08-08T06:30:59.929Z,5.23
2017-08-08T06:33:33.278Z,5.40
2017-08-08T06:35:59.209Z,5.50
2017-08-08T06:38:25.146Z,5.90
2017-08-08T06:40:51.086Z,6.77
2017-08-08T06:43:17.059Z,6.63
2017-08-08T06:45:43.008Z,5.80
2017-08-08T06:48:08.962Z,5.60
2017-08-08T06:50:34.931Z,5.77
2017-08-08T06:53:00.872Z,7.40
2017-08-08T06:55:32.784Z,6.30
2017-08-08T06:57:58.759Z,6.70
2017-08-08T07:00:24.742Z,7.80
2017-08-08T07:02:50.697Z,7.67
2017-08-08T07:05:17.465Z,5.90
2017-08-08T07:07:43.446Z,6.47
2017-08-08T07:10:09.434Z,6.50
2017-08-08T07:12:35.421Z,6.47
2017-08-08T07:15:02.135Z,6.37
2017-08-08T07:17:28.102Z,5.63
2017-08-08T07:19:54.841Z,7.10
2017-08-08T07:22:21.544Z,7.00
2017-08-08T07:24:47.485Z,6.40
2017-08-08T07:27:13.697Z,6.50
2017-08-08T07:29:39.650Z,6.60
2017-08-08T07:32:05.817Z,6.93
2017-08-08T07:34:32.004Z,6.77
2017-08-08T07:36:57.974Z,6.90
2017-08-08T07:39:23.898Z,6.00
2017-08-08T07:41:50.591Z,6.70
2017-08-08T07:44:16.538Z,7.10
2017-08-08T07:46:42.485Z,6.07
2017-08-08T07:49:08.444Z,6.00
2017-08-08T07:51:34.378Z,7.20
2017-08-08T07:54:00.354Z,7.43
2017-08-08T07:56:26.301Z,6.60
2017-08-08T07:58:53.002Z,7.07
2017-08-08T08:01:18.960Z,6.53
2017-08-08T08:03:44.943Z,6.90
2017-08-08T08:06:10.877Z,6.23
2017-08-08T08:08:36.804Z,6.00
2017-08-08T08:11:02.734Z,6.80
2017-08-08T08:13:28.680Z,7.27
2017-08-08T08:15:54.678Z,6.43
2017-08-08T08:18:20.606Z,6.63
2017-08-08T08:20:46.530Z,6.33
2017-08-08T08:23:12.492Z,7.40
2017-08-08T08:25:38.437Z,6.20
2017-08-08T08:28:04.375Z,6.80
2017-08-08T08:30:31.057Z,6.20
2017-08-08T08:32:57.052Z,6.20
2017-08-08T08:35:23.770Z,6.30
2017-08-08T08:37:49.706Z,6.47
2017-08-08T08:40:15.656Z,5.60
2017-08-08T08:42:42.347Z,6.33
2017-08-08T08:45:08.257Z,5.97
2017-08-08T08:47:34.211Z,6.37
2017-08-08T08:50:00.138Z,6.70
2017-08-08T08:52:26.109Z,6.93
2017-08-08T08:55:06.522Z,5.97
2017-08-08T08:57:32.452Z,7.00
2017-08-08T08:59:58.349Z,5.83
2017-08-08T09:02:24.301Z,6.17
2017-08-08T09:04:50.250Z,7.27
2017-08-08T09:07:16.225Z,6.10
2017-08-08T09:09:42.208Z,6.57
2017-08-08T09:12:08.186Z,7.27
2017-08-08T09:14:34.126Z,7.00
2017-08-08T09:17:00.070Z,7.43
2017-08-08T09:19:25.996Z,7.60
2017-08-08T09:21:51.945Z,6.33
2017-08-08T09:24:17.882Z,6.50
2017-08-08T09:26:43.828Z,9.67
2017-08-08T09:29:10.517Z,7.50
2017-08-08T09:31:36.467Z,9.47
2017-08-08T09:34:02.400Z,6.93
2017-08-08T09:36:28.337Z,8.23
2017-08-08T09:38:54.303Z,7.63
2017-08-08T09:41:20.254Z,8.27
2017-08-08T09:43:46.219Z,10.33
2017-08-08T09:46:12.147Z,10.07
2017-08-08T09:48:38.209Z,7.20
2017-08-08T09:51:05.186Z,7.47
2017-08-08T09:53:31.154Z,7.50
2017-08-08T09:55:57.124Z,8.83
2017-08-08T09:58:23.106Z,8.70
2017-08-08T10:00:49.090Z,9.03
2017-08-08T10:03:15.081Z,9.80
2017-08-08T10:05:43.979Z,8.17
2017-08-08T10:08:11.596Z,10.80
2017-08-08T10:10:37.561Z,7.70
2017-08-08T10:13:03.521Z,8.40
2017-08-08T10:15:30.217Z,6.03
2017-08-08T10:17:56.172Z,7.83
2017-08-08T10:20:22.881Z,7.67
2017-08-08T10:22:48.866Z,7.57
2017-08-08T10:25:14.816Z,8.60
2017-08-08T10:27:40.757Z,7.50
2017-08-08T10:30:06.713Z,7.30
2017-08-08T10:32:32.660Z,8.80
2017-08-08T10:34:59.349Z,8.20
2017-08-08T10:37:25.322Z,7.80
2017-08-08T10:39:51.262Z,8.87
2017-08-08T10:42:17.233Z,8.63
2017-08-08T10:44:43.184Z,8.27
2017-08-08T10:47:09.161Z,9.10
2017-08-08T10:49:35.828Z,8.10
2017-08-08T10:52:01.787Z,7.93
2017-08-08T10:54:27.753Z,9.07
2017-08-08T10:56:54.432Z,8.20
2017-08-08T10:59:20.391Z,9.57
2017-08-08T11:01:46.325Z,8.20
2017-08-08T11:04:12.277Z,7.90
2017-08-08T11:06:39.035Z,9.23
2017-08-08T11:09:05.018Z,8.23
2017-08-08T11:11:30.997Z,7.90
2017-08-08T11:13:56.974Z,7.47
2017-08-08T11:16:22.923Z,8.20
2017-08-08T11:18:48.894Z,7.90
2017-08-08T11:21:14.861Z,7.70
2017-08-08T11:23:40.831Z,9.47
2017-08-08T11:26:06.777Z,7.77
2017-08-08T11:28:32.739Z,7.93
2017-08-08T11:30:58.709Z,8.57
2017-08-08T11:33:24.669Z,8.57
2017-08-08T11:35:50.647Z,8.47
2017-08-08T11:38:16.643Z,8.43
2017-08-08T11:40:42.607Z,8.50
2017-08-08T11:43:08.565Z,9.10
2017-08-08T11:45:34.586Z,7.40
2017-08-08T11:48:04.106Z,7.70
2017-08-08T11:50:30.059Z,7.83
2017-08-08T11:52:56.107Z,7.10
2017-08-08T11:55:22.085Z,9.40
2017-08-08T11:57:48.027Z,8.33
2017-08-08T12:00:14.006Z,8.30
2017-08-08T12:02:40.702Z,10.47
2017-08-08T12:05:07.022Z,11.90
2017-08-08T12:07:33.057Z,13.83
2017-08-08T12:09:59.001Z,12.97
2017-08-08T12:12:24.975Z,10.60
2017-08-08T12:14:54.122Z,10.33
2017-08-08T12:17:20.104Z,8.90
2017-08-08T12:19:46.093Z,7.87
2017-08-08T12:22:12.045Z,8.20
2017-08-08T12:24:38.006Z,7.40
2017-08-08T12:27:04.257Z,6.60
2017-08-08T12:29:30.194Z,8.03
2017-08-08T12:31:56.146Z,8.10
2017-08-08T12:34:22.095Z,8.77
2017-08-08T12:36:48.053Z,7.10
2017-08-08T12:39:14.722Z,7.60
2017-08-08T12:41:40.653Z,7.70
2017-08-08T12:44:10.360Z,7.83
2017-08-08T12:46:36.316Z,7.50
2017-08-08T12:49:22.770Z,7.90
2017-08-08T12:51:55.361Z,7.50
2017-08-08T12:54:21.312Z,8.27
2017-08-08T12:56:47.259Z,7.53
2017-08-08T12:59:21.268Z,7.53
2017-08-08T13:01:47.234Z,6.87
2017-08-08T13:04:13.194Z,8.20
2017-08-08T13:06:39.154Z,8.53
2017-08-08T13:09:05.159Z,6.87
2017-08-08T13:11:31.118Z,5.83
2017-08-08T13:13:57.038Z,6.20
2017-08-08T13:16:22.990Z,5.73
2017-08-08T13:18:49.717Z,5.40
2017-08-08T13:21:15.679Z,6.10
2017-08-08T13:23:42.386Z,5.33
2017-08-08T13:26:08.330Z,4.57
2017-08-08T13:28:35.027Z,5.60
2017-08-08T13:31:01.011Z,4.80
2017-08-08T13:33:27.685Z,5.10
2017-08-08T13:35:53.686Z,4.97
2017-08-08T13:38:19.633Z,4.80
2017-08-08T13:40:45.586Z,4.87
2017-08-08T13:43:11.537Z,5.43
2017-08-08T13:45:37.493Z,6.07
2017-08-08T13:48:04.191Z,5.07
2017-08-08T13:50:30.166Z,6.70
2017-08-08T13:52:56.192Z,5.20
2017-08-08T13:55:22.129Z,6.97
2017-08-08T13:57:48.811Z,5.50
2017-08-08T14:00:14.822Z,5.40
2017-08-08T14:02:40.818Z,5.43
2017-08-08T14:05:07.507Z,5.53
2017-08-08T14:07:33.470Z,5.37
2017-08-08T14:09:59.435Z,5.40
2017-08-08T14:12:26.116Z,5.77
2017-08-08T14:14:53.142Z,6.80
2017-08-08T14:17:19.184Z,8.30
2017-08-08T14:19:45.234Z,7.53
2017-08-08T14:22:11.204Z,7.37
2017-08-08T14:30:24.998Z,9.73
2017-08-08T14:32:50.934Z,9.17
2017-08-08T14:35:16.898Z,6.77
2017-08-08T14:37:42.835Z,6.90
2017-08-08T14:40:08.780Z,6.40
2017-08-08T14:42:35.458Z,6.97
2017-08-08T14:45:01.398Z,5.43
2017-08-08T14:47:27.351Z,6.50
2017-08-08T14:49:53.304Z,5.40
2017-08-08T14:52:20.027Z,5.33
2017-08-08T14:54:45.968Z,5.10
2017-08-08T14:57:12.012Z,4.83
2017-08-08T14:59:37.971Z,3.93
2017-08-08T15:02:03.976Z,4.13
2017-08-08T15:04:29.955Z,4.40
2017-08-08T15:06:55.892Z,3.70
2017-08-08T15:09:21.832Z,3.60
2017-08-08T15:11:48.543Z,3.17
2017-08-08T15:14:14.490Z,3.40
2017-08-08T15:16:40.442Z,3.57
2017-08-08T15:19:07.154Z,3.10
2017-08-08T15:21:33.093Z,3.50
2017-08-08T15:23:59.050Z,3.50
2017-08-08T15:26:25.730Z,4.10
2017-08-08T15:28:51.706Z,3.13
2017-08-08T15:31:17.678Z,2.50
2017-08-08T15:33:43.637Z,3.23
2017-08-08T15:36:09.614Z,4.20
2017-08-08T15:38:55.339Z,4.10
2017-08-08T15:41:21.266Z,3.00
2017-08-08T15:43:47.206Z,4.90
2017-08-08T15:46:13.174Z,5.97
2017-08-08T15:48:39.127Z,2.83
2017-08-08T15:51:05.118Z,3.47
2017-08-08T15:53:31.101Z,2.90
2017-08-08T15:55:57.079Z,3.07
2017-08-08T15:58:23.746Z,3.03
2017-08-08T16:00:49.726Z,1.87
2017-08-08T16:03:15.672Z,2.30
2017-08-08T16:05:42.367Z,2.73
2017-08-08T16:08:08.361Z,4.20
2017-08-08T16:10:34.312Z,2.50
2017-08-08T16:13:00.258Z,4.20
2017-08-08T16:15:26.242Z,2.40
2017-08-08T16:17:52.260Z,2.37
2017-08-08T16:20:18.222Z,2.57
2017-08-08T16:22:44.251Z,3.00
2017-08-08T16:25:10.230Z,2.53
2017-08-08T16:27:36.181Z,2.50
2017-08-08T16:30:02.916Z,2.30
2017-08-08T16:32:28.907Z,2.83
2017-08-08T16:34:54.863Z,2.73
2017-08-08T16:37:20.822Z,2.13
2017-08-08T16:39:46.825Z,2.30
2017-08-08T16:42:12.783Z,1.87
2017-08-08T16:44:39.464Z,2.17
2017-08-08T16:47:05.485Z,2.17
2017-08-08T16:49:31.441Z,2.17
2017-08-08T16:51:57.382Z,1.90
2017-08-08T16:54:24.117Z,2.30
2017-08-08T16:56:50.098Z,1.87
2017-08-08T16:59:16.183Z,2.20
2017-08-08T17:01:42.120Z,2.33
2017-08-08T17:04:08.833Z,1.80
2017-08-08T17:06:34.812Z,1.73
2017-08-08T17:09:01.546Z,1.73
2017-08-08T17:11:28.267Z,2.33
2017-08-08T17:13:54.239Z,2.17
2017-08-08T17:16:20.222Z,2.03
2017-08-08T17:18:46.229Z,2.37
2017-08-08T17:21:12.184Z,1.90
2017-08-08T17:23:38.157Z,2.50
2017-08-08T17:26:04.176Z,1.90
2017-08-08T17:28:30.132Z,2.80
2017-08-08T17:30:56.094Z,1.80
2017-08-08T17:33:22.779Z,2.30
2017-08-08T17:35:48.726Z,1.80
2017-08-08T17:38:14.719Z,2.00
2017-08-08T17:40:40.637Z,2.33
2017-08-08T17:43:07.352Z,3.20
2017-08-08T17:45:33.326Z,2.43
2017-08-08T17:47:59.308Z,2.00
2017-08-08T17:50:25.241Z,2.80
2017-08-08T17:52:51.202Z,2.43
2017-08-08T17:55:17.161Z,2.60
2017-08-08T17:57:43.105Z,2.07
2017-08-08T18:00:09.065Z,2.43
2017-08-08T18:02:35.075Z,2.77
2017-08-08T18:05:01.034Z,3.17
2017-08-08T18:07:27.750Z,2.73
2017-08-08T18:09:53.706Z,2.10
2017-08-08T18:12:19.740Z,3.27
2017-08-08T18:14:45.690Z,3.30
2017-08-08T18:17:11.672Z,2.60
2017-08-08T18:19:37.630Z,3.63
2017-08-08T18:22:03.672Z,3.70
2017-08-08T18:24:29.707Z,3.43
2017-08-08T18:26:55.666Z,3.50
2017-08-08T18:29:40.333Z,2.93
2017-08-08T18:32:06.270Z,3.77
2017-08-08T18:34:33.311Z,3.30
2017-08-08T18:36:59.371Z,3.27
2017-08-08T18:39:26.083Z,2.83
2017-08-08T18:41:52.026Z,3.63
2017-08-08T18:44:17.992Z,3.13
2017-08-08T18:46:44.323Z,3.67
2017-08-08T18:49:10.415Z,3.73
2017-08-08T18:51:36.403Z,3.53
2017-08-08T18:54:02.373Z,3.97
2017-08-08T18:56:28.358Z,3.60
2017-08-08T18:58:54.304Z,3.40
2017-08-08T19:01:20.272Z,3.73
2017-08-08T19:03:46.294Z,3.50
2017-08-08T19:06:12.314Z,3.90
2017-08-08T19:08:38.273Z,3.40
2017-08-08T19:11:04.309Z,3.37
2017-08-08T19:13:31.058Z,3.90
2017-08-08T19:15:57.811Z,5.30
2017-08-08T19:18:23.768Z,3.83
2017-08-08T19:20:49.745Z,3.43
2017-08-08T19:23:16.433Z,3.10
2017-08-08T19:25:42.448Z,3.13
2017-08-08T19:28:08.409Z,3.50
2017-08-08T19:30:34.407Z,3.23
2017-08-08T19:33:00.342Z,3.13
2017-08-08T19:35:26.293Z,4.90
2017-08-08T19:37:53.338Z,3.50
2017-08-08T19:40:19.449Z,3.53
2017-08-08T19:42:45.425Z,3.37
2017-08-08T19:45:11.376Z,3.70
2017-08-08T19:47:38.098Z,3.47
2017-08-08T19:50:04.052Z,3.40
2017-08-08T19:52:30.749Z,4.07
2017-08-08T19:54:56.682Z,3.13
2017-08-08T19:57:22.689Z,4.10
2017-08-08T19:59:48.683Z,3.83
2017-08-08T20:02:15.440Z,3.93
2017-08-08T20:04:41.400Z,4.27
2017-08-08T20:07:07.397Z,4.50
2017-08-08T20:09:33.392Z,5.07
2017-08-08T20:11:59.371Z,3.70
2017-08-08T20:14:25.318Z,3.50
2017-08-08T20:16:51.301Z,4.40
2017-08-08T20:19:17.981Z,3.50
2017-08-08T20:21:44.032Z,3.40
2017-08-08T20:24:10.359Z,3.70
2017-08-08T20:26:36.318Z,3.90
2017-08-08T20:29:03.145Z,3.23
2017-08-08T20:31:29.132Z,3.40
2017-08-08T20:33:55.087Z,2.87
2017-08-08T20:36:27.893Z,3.03
2017-08-08T20:38:53.849Z,3.30
2017-08-08T20:41:20.566Z,3.60
2017-08-08T20:43:46.584Z,3.10
2017-08-08T20:46:12.568Z,3.93
2017-08-08T20:48:38.538Z,4.00
2017-08-08T20:51:04.492Z,3.30
2017-08-08T20:53:31.203Z,3.03
2017-08-08T20:55:57.229Z,3.30
2017-08-08T20:58:23.193Z,3.47
2017-08-08T21:00:49.916Z,3.37
2017-08-08T21:03:15.880Z,3.90
2017-08-08T21:05:42.573Z,3.60
2017-08-08T21:08:08.566Z,3.63
2017-08-08T21:10:34.533Z,4.27
2017-08-08T21:13:00.530Z,3.47
2017-08-08T21:15:26.482Z,3.90
2017-08-08T21:17:52.484Z,5.13
2017-08-08T21:20:18.489Z,3.40
2017-08-08T21:22:45.204Z,4.10
2017-08-08T21:25:11.172Z,3.60
2017-08-08T21:27:37.878Z,3.50
2017-08-08T21:30:03.841Z,4.00
2017-08-08T21:32:30.554Z,3.60
2017-08-08T21:34:56.557Z,3.80
2017-08-08T21:37:22.566Z,3.63
2017-08-08T21:39:48.544Z,3.70
2017-08-08T21:42:14.506Z,3.90
2017-08-08T21:44:40.497Z,3.80
2017-08-08T21:47:06.477Z,3.80
2017-08-08T21:49:32.449Z,3.40
2017-08-08T21:51:58.397Z,3.47
2017-08-08T21:54:25.131Z,4.00
2017-08-08T21:56:51.079Z,4.50
2017-08-08T21:59:17.826Z,3.87
2017-08-08T22:01:43.787Z,3.60
2017-08-08T22:04:09.739Z,4.00
2017-08-08T22:06:35.698Z,3.30
2017-08-08T22:09:02.565Z,3.87
2017-08-08T22:11:29.304Z,4.47
2017-08-08T22:13:56.079Z,3.37
2017-08-08T22:16:22.041Z,4.40
2017-08-08T22:18:47.985Z,5.33
2017-08-08T22:21:13.982Z,4.80
2017-08-08T22:23:39.967Z,4.47
2017-08-08T22:26:06.693Z,4.50
2017-08-08T22:28:32.661Z,4.30
2017-08-08T22:30:58.679Z,3.40
2017-08-08T22:33:24.651Z,3.90
2017-08-08T22:35:50.647Z,4.43
2017-08-08T22:38:16.610Z,4.20
2017-08-08T22:40:42.584Z,4.30
2017-08-08T22:43:09.307Z,6.43
2017-08-08T22:45:35.254Z,3.90
2017-08-08T22:48:02.006Z,5.40
2017-08-08T22:50:28.686Z,6.43
2017-08-08T22:52:54.766Z,4.20
2017-08-08T22:55:20.712Z,5.53
2017-08-08T22:57:46.727Z,4.60
2017-08-08T23:00:13.413Z,4.67
2017-08-08T23:02:39.393Z,6.10
2017-08-08T23:05:06.101Z,4.83
2017-08-08T23:07:32.084Z,3.90
2017-08-08T23:09:58.106Z,4.27
2017-08-08T23:12:24.051Z,4.23
2017-08-08T23:14:50.055Z,4.13
2017-08-08T23:17:16.027Z,3.67
2017-08-08T23:19:42.766Z,3.30
2017-08-08T23:22:09.090Z,4.43
2017-08-08T23:24:35.038Z,3.27
2017-08-08T23:27:02.828Z,3.50
2017-08-08T23:29:29.814Z,3.77
2017-08-08T23:32:01.367Z,4.47
2017-08-08T23:34:27.312Z,3.50
2017-08-08T23:36:53.986Z,3.50
2017-08-08T23:39:19.954Z,2.87
2017-08-08T23:41:45.904Z,2.70
2017-08-08T23:44:12.607Z,4.27
2017-08-08T23:46:38.553Z,5.20
2017-08-08T23:49:04.538Z,3.50
2017-08-08T23:51:30.502Z,2.50
2017-08-08T23:53:56.467Z,3.67
2017-08-08T23:56:23.152Z,2.93
2017-08-08T23:58:49.125Z,2.90
